Time;durP1;ratioP1;P1;durP2;ratioP2;P2;SDS_P1;SDS_P2;PMS_P1;PMS_P2;Temp;Humidity;BMP_temperature;BMP_pressure;BME280_temperature;BME280_humidity;BME280_pressure;Samples;Min_cycle;Max_cycle;Signal;HPM_P1;HPM_P2
2022/03/11 00:01:16;;;;;;;38.28;21.48;;;;;;;;;;5072811;28;20041;-72
2022/03/11 00:03:42;;;;;;;37.33;21.98;;;;;;;;;;5071927;28;20036;-73
2022/03/11 00:06:08;;;;;;;39.88;24.42;;;;;;;;;;5072620;28;20032;-72
2022/03/11 00:08:34;;;;;;;50.00;29.10;;;;;;;;;;5071529;28;20029;-72
2022/03/11 00:11:00;;;;;;;66.70;34.70;;;;;;;;;;5072392;28;20104;-72
2022/03/11 00:13:27;;;;;;;67.60;36.58;;;;;;;;;;5070585;28;20112;-72
2022/03/11 00:15:53;;;;;;;59.78;31.58;;;;;;;;;;5071788;28;20386;-72
2022/03/11 00:18:20;;;;;;;50.42;31.00;;;;;;;;;;5072053;28;20103;-72
2022/03/11 00:20:46;;;;;;;52.17;29.15;;;;;;;;;;5072185;28;20475;-72
2022/03/11 00:23:12;;;;;;;48.72;26.88;;;;;;;;;;5072633;28;20052;-72
2022/03/11 00:25:38;;;;;;;42.75;24.48;;;;;;;;;;5067794;28;20052;-72
2022/03/11 00:28:04;;;;;;;41.30;22.50;;;;;;;;;;5072191;28;20471;-72
2022/03/11 00:30:30;;;;;;;43.03;23.95;;;;;;;;;;5071316;28;20028;-72
2022/03/11 00:32:56;;;;;;;37.00;20.48;;;;;;;;;;5071665;28;20048;-72
2022/03/11 00:35:22;;;;;;;36.88;21.23;;;;;;;;;;5070471;28;20039;-72
2022/03/11 00:37:48;;;;;;;39.75;20.50;;;;;;;;;;5072188;28;20051;-72
2022/03/11 00:40:15;;;;;;;37.15;20.48;;;;;;;;;;5072015;28;20039;-72
2022/03/11 00:42:41;;;;;;;38.17;18.95;;;;;;;;;;5071563;28;20064;-72
2022/03/11 00:45:07;;;;;;;32.10;18.30;;;;;;;;;;5062358;28;20029;-72
2022/03/11 00:47:33;;;;;;;30.70;18.20;;;;;;;;;;5070640;28;20035;-72
2022/03/11 00:49:59;;;;;;;35.00;20.20;;;;;;;;;;5071312;28;20020;-72
2022/03/11 00:52:25;;;;;;;41.85;20.50;;;;;;;;;;5071598;28;20051;-73
2022/03/11 00:54:51;;;;;;;39.88;21.48;;;;;;;;;;5071071;28;20107;-72
2022/03/11 00:57:17;;;;;;;37.35;21.30;;;;;;;;;;5070265;28;20101;-72
2022/03/11 00:59:43;;;;;;;35.53;19.42;;;;;;;;;;5069311;28;20024;-73
2022/03/11 01:02:09;;;;;;;35.70;20.42;;;;;;;;;;5070250;28;20064;-72
2022/03/11 01:04:35;;;;;;;38.00;19.88;;;;;;;;;;5071307;28;20819;-72
2022/03/11 01:07:01;;;;;;;35.25;19.02;;;;;;;;;;5071524;28;20043;-72
2022/03/11 01:09:27;;;;;;;35.40;18.63;;;;;;;;;;5071035;28;20028;-72
2022/03/11 01:11:53;;;;;;;38.95;20.67;;;;;;;;;;5070667;28;20733;-72
2022/03/11 01:14:19;;;;;;;35.35;19.58;;;;;;;;;;5071162;28;20024;-72
2022/03/11 01:16:45;;;;;;;38.13;20.42;;;;;;;;;;5070791;28;20041;-72
2022/03/11 01:19:11;;;;;;;34.88;19.55;;;;;;;;;;5071119;28;20024;-72
2022/03/11 01:21:37;;;;;;;31.80;17.98;;;;;;;;;;5070508;28;20037;-72
2022/03/11 01:24:03;;;;;;;39.20;19.10;;;;;;;;;;5070917;28;20505;-72
2022/03/11 01:26:29;;;;;;;38.78;19.23;;;;;;;;;;5070144;28;20040;-72
2022/03/11 01:28:55;;;;;;;38.95;22.55;;;;;;;;;;5071069;28;20142;-72
2022/03/11 01:31:21;;;;;;;42.63;22.23;;;;;;;;;;5066069;28;20065;-72
2022/03/11 01:33:47;;;;;;;37.35;19.50;;;;;;;;;;5071066;28;20059;-72
2022/03/11 01:36:14;;;;;;;35.17;21.17;;;;;;;;;;5067378;28;20072;-72
2022/03/11 01:38:40;;;;;;;37.67;21.70;;;;;;;;;;5060225;28;20077;-72
2022/03/11 01:41:06;;;;;;;39.95;22.23;;;;;;;;;;5069999;28;20032;-72
2022/03/11 01:43:49;;;;;;;35.30;20.67;;;;;;;;;;5070650;28;20063;-72
2022/03/11 01:46:15;;;;;;;41.15;20.77;;;;;;;;;;5069573;28;20044;-72
2022/03/11 01:48:41;;;;;;;32.38;17.80;;;;;;;;;;5068419;28;20033;-72
2022/03/11 01:51:07;;;;;;;31.15;17.15;;;;;;;;;;5069350;28;20028;-73
2022/03/11 01:53:33;;;;;;;33.20;18.40;;;;;;;;;;5067784;28;20029;-73
2022/03/11 01:55:59;;;;;;;31.35;18.92;;;;;;;;;;5068081;28;20035;-72
2022/03/11 01:58:26;;;;;;;35.00;18.08;;;;;;;;;;5065745;28;20047;-72
2022/03/11 02:00:52;;;;;;;34.00;18.45;;;;;;;;;;5070499;28;20139;-72
2022/03/11 02:03:18;;;;;;;37.42;20.08;;;;;;;;;;5064936;28;20245;-72
2022/03/11 02:05:44;;;;;;;32.65;19.38;;;;;;;;;;5070252;28;20119;-72
2022/03/11 02:08:10;;;;;;;31.42;17.95;;;;;;;;;;5062968;28;20532;-72
2022/03/11 02:10:36;;;;;;;28.00;16.73;;;;;;;;;;5068803;28;20075;-72
2022/03/11 02:13:06;;;;;;;29.83;16.83;;;;;;;;;;5070156;28;20452;-72
2022/03/11 02:15:32;;;;;;;34.10;16.70;;;;;;;;;;5069881;28;20498;-72
2022/03/11 02:17:58;;;;;;;33.75;19.83;;;;;;;;;;5069117;28;20107;-72
2022/03/11 02:20:24;;;;;;;32.15;18.45;;;;;;;;;;5069852;28;20107;-72
2022/03/11 02:22:51;;;;;;;30.17;17.33;;;;;;;;;;5069653;28;20040;-72
2022/03/11 02:25:17;;;;;;;32.30;17.75;;;;;;;;;;5066649;28;20035;-72
2022/03/11 02:27:46;;;;;;;31.33;18.60;;;;;;;;;;5063327;28;20070;-72
2022/03/11 02:30:22;;;;;;;29.58;17.20;;;;;;;;;;5057001;28;20032;-72
2022/03/11 02:32:48;;;;;;;35.90;17.95;;;;;;;;;;5069251;28;20753;-72
2022/03/11 02:35:15;;;;;;;33.78;17.52;;;;;;;;;;5068849;28;20682;-72
2022/03/11 02:37:41;;;;;;;32.47;18.83;;;;;;;;;;5066839;28;20203;-72
2022/03/11 02:40:08;;;;;;;33.13;19.85;;;;;;;;;;5069557;28;20081;-72
2022/03/11 02:42:34;;;;;;;33.15;17.70;;;;;;;;;;5069322;28;20221;-72
2022/03/11 02:45:00;;;;;;;37.05;20.15;;;;;;;;;;5069450;28;20033;-72
2022/03/11 02:47:27;;;;;;;48.75;27.30;;;;;;;;;;5068964;28;20033;-73
2022/03/11 02:49:53;;;;;;;47.05;28.95;;;;;;;;;;5069353;28;20120;-72
2022/03/11 02:52:19;;;;;;;38.85;21.95;;;;;;;;;;5069129;28;20415;-73
2022/03/11 02:54:45;;;;;;;32.72;16.35;;;;;;;;;;5069516;28;20032;-73
2022/03/11 02:57:11;;;;;;;31.70;17.50;;;;;;;;;;5064725;28;20052;-72
2022/03/11 02:59:37;;;;;;;34.47;18.58;;;;;;;;;;5064419;28;20029;-73
2022/03/11 03:02:03;;;;;;;32.30;19.52;;;;;;;;;;5058728;28;20033;-72
2022/03/11 03:04:29;;;;;;;30.92;17.38;;;;;;;;;;5068913;28;20020;-71
2022/03/11 03:06:55;;;;;;;37.03;19.73;;;;;;;;;;5059508;28;20060;-72
2022/03/11 03:09:21;;;;;;;36.65;19.67;;;;;;;;;;5068414;28;20064;-72
2022/03/11 03:11:47;;;;;;;32.47;17.92;;;;;;;;;;5061637;28;20033;-72
2022/03/11 03:14:13;;;;;;;33.85;18.58;;;;;;;;;;5064902;28;20040;-72
2022/03/11 03:16:39;;;;;;;35.53;18.25;;;;;;;;;;5067549;28;20040;-72
2022/03/11 03:19:05;;;;;;;33.75;18.98;;;;;;;;;;5051577;28;20468;-72
2022/03/11 03:21:31;;;;;;;29.90;17.88;;;;;;;;;;5056422;28;20048;-73
2022/03/11 03:23:57;;;;;;;34.03;19.27;;;;;;;;;;5051815;28;20037;-72
2022/03/11 03:26:23;;;;;;;37.42;20.90;;;;;;;;;;5068651;28;20036;-72
2022/03/11 03:28:49;;;;;;;32.58;19.95;;;;;;;;;;5065756;28;20031;-72
2022/03/11 03:31:18;;;;;;;30.90;17.50;;;;;;;;;;5064556;28;20040;-72
2022/03/11 03:33:44;;;;;;;30.55;16.45;;;;;;;;;;5065611;28;20031;-72
2022/03/11 03:36:10;;;;;;;28.25;16.33;;;;;;;;;;5068088;28;20048;-72
2022/03/11 03:38:36;;;;;;;30.17;15.88;;;;;;;;;;5068279;28;20087;-72
2022/03/11 03:41:02;;;;;;;29.00;17.63;;;;;;;;;;5068815;28;20685;-73
2022/03/11 03:43:28;;;;;;;28.02;15.63;;;;;;;;;;5061231;28;20060;-73
2022/03/11 03:45:54;;;;;;;30.98;16.75;;;;;;;;;;5068379;28;20394;-72
2022/03/11 03:48:20;;;;;;;29.65;16.25;;;;;;;;;;5067894;28;20032;-72
2022/03/11 03:50:46;;;;;;;25.08;16.23;;;;;;;;;;5069103;28;20025;-72
2022/03/11 03:53:12;;;;;;;29.20;15.77;;;;;;;;;;5067933;28;20475;-72
2022/03/11 03:55:39;;;;;;;28.13;14.95;;;;;;;;;;5068665;28;20150;-72
2022/03/11 03:58:04;;;;;;;29.27;14.82;;;;;;;;;;5068480;28;20040;-72
2022/03/11 04:00:30;;;;;;;25.35;14.85;;;;;;;;;;5048879;28;20053;-72
2022/03/11 04:02:56;;;;;;;23.92;14.23;;;;;;;;;;5048855;28;20479;-73
2022/03/11 04:05:22;;;;;;;25.08;14.80;;;;;;;;;;5067036;28;20102;-73
2022/03/11 04:07:49;;;;;;;30.20;17.40;;;;;;;;;;5068317;28;20048;-72
2022/03/11 04:10:15;;;;;;;24.98;14.80;;;;;;;;;;5051145;28;20029;-72
2022/03/11 04:12:41;;;;;;;29.83;16.55;;;;;;;;;;5068085;28;20114;-72
2022/03/11 04:15:08;;;;;;;29.52;17.05;;;;;;;;;;5065143;28;20140;-72
2022/03/11 04:17:34;;;;;;;30.73;17.25;;;;;;;;;;5067712;28;20047;-72
2022/03/11 04:20:01;;;;;;;30.95;17.48;;;;;;;;;;5063434;28;20051;-72
2022/03/11 04:22:27;;;;;;;31.25;17.80;;;;;;;;;;5053535;28;20123;-72
2022/03/11 04:24:53;;;;;;;32.05;17.10;;;;;;;;;;5053287;28;20036;-72
2022/03/11 04:27:21;;;;;;;32.20;15.93;;;;;;;;;;5068325;28;20043;-72
2022/03/11 04:29:47;;;;;;;31.17;14.60;;;;;;;;;;5067553;28;20059;-72
2022/03/11 04:32:13;;;;;;;39.10;19.95;;;;;;;;;;5068368;28;20137;-72
2022/03/11 04:34:39;;;;;;;36.60;18.38;;;;;;;;;;5066009;28;20033;-72
2022/03/11 04:37:05;;;;;;;34.40;19.40;;;;;;;;;;5068281;28;20029;-73
2022/03/11 04:39:31;;;;;;;29.17;15.95;;;;;;;;;;5067864;28;20364;-72
2022/03/11 04:41:57;;;;;;;34.47;18.30;;;;;;;;;;5063320;28;20053;-72
2022/03/11 04:44:23;;;;;;;41.95;21.73;;;;;;;;;;5071848;28;20021;-72
2022/03/11 04:46:50;;;;;;;42.92;22.73;;;;;;;;;;5070645;28;20040;-72
2022/03/11 04:49:16;;;;;;;40.97;22.35;;;;;;;;;;5072016;28;20032;-72
2022/03/11 04:51:42;;;;;;;37.35;18.60;;;;;;;;;;5071992;28;20040;-72
2022/03/11 04:54:08;;;;;;;34.22;20.20;;;;;;;;;;5071749;28;20466;-72
2022/03/11 04:56:36;;;;;;;33.67;18.35;;;;;;;;;;5071370;28;20348;-72
2022/03/11 04:59:02;;;;;;;38.15;18.55;;;;;;;;;;5068154;28;20117;-72
2022/03/11 05:01:28;;;;;;;31.30;16.17;;;;;;;;;;5071049;28;20923;-72
2022/03/11 05:03:54;;;;;;;33.40;18.15;;;;;;;;;;5055031;28;20388;-72
2022/03/11 05:06:20;;;;;;;35.65;19.77;;;;;;;;;;5066945;28;20040;-72
2022/03/11 05:08:46;;;;;;;36.47;21.65;;;;;;;;;;5070236;28;20432;-72
2022/03/11 05:11:13;;;;;;;34.88;19.23;;;;;;;;;;5071420;28;20033;-72
2022/03/11 05:13:39;;;;;;;35.72;17.63;;;;;;;;;;5055625;28;20029;-72
2022/03/11 05:16:05;;;;;;;29.50;16.52;;;;;;;;;;5057797;28;20032;-73
2022/03/11 05:18:31;;;;;;;39.50;18.95;;;;;;;;;;5070693;28;20024;-73
2022/03/11 05:20:57;;;;;;;34.83;19.70;;;;;;;;;;5071386;28;20035;-72
2022/03/11 05:23:23;;;;;;;34.85;18.45;;;;;;;;;;5070490;28;20147;-72
2022/03/11 05:25:49;;;;;;;36.53;17.77;;;;;;;;;;5069653;28;20119;-72
2022/03/11 05:28:15;;;;;;;34.80;19.23;;;;;;;;;;5070855;28;20584;-72
2022/03/11 05:30:41;;;;;;;32.33;16.65;;;;;;;;;;5071247;28;20028;-73
2022/03/11 05:33:07;;;;;;;35.53;16.67;;;;;;;;;;5066137;28;20070;-72
2022/03/11 05:35:34;;;;;;;36.42;19.17;;;;;;;;;;5070899;28;20111;-72
2022/03/11 05:38:00;;;;;;;37.25;19.48;;;;;;;;;;5071135;28;20036;-72
2022/03/11 05:40:26;;;;;;;39.85;21.48;;;;;;;;;;5071079;28;20052;-72
2022/03/11 05:42:52;;;;;;;36.90;19.20;;;;;;;;;;5070589;28;20064;-72
2022/03/11 05:45:18;;;;;;;74.50;38.20;;;;;;;;;;5070785;28;20033;-72
2022/03/11 05:47:45;;;;;;;126.50;67.20;;;;;;;;;;5064549;28;20040;-72
2022/03/11 05:50:11;;;;;;;69.78;33.97;;;;;;;;;;5066838;28;20086;-72
2022/03/11 05:52:42;;;;;;;72.07;38.72;;;;;;;;;;5069110;28;20047;-72
2022/03/11 05:55:08;;;;;;;56.50;28.38;;;;;;;;;;5070742;28;20028;-72
2022/03/11 05:57:34;;;;;;;48.35;24.45;;;;;;;;;;5069811;28;20071;-72
2022/03/11 06:00:01;;;;;;;45.47;23.95;;;;;;;;;;5070546;28;20133;-72
2022/03/11 06:02:27;;;;;;;42.88;20.27;;;;;;;;;;5069343;28;20085;-72
2022/03/11 06:04:53;;;;;;;46.85;21.73;;;;;;;;;;5067342;28;20032;-72
2022/03/11 06:07:20;;;;;;;42.00;22.10;;;;;;;;;;5064756;28;20098;-72
2022/03/11 06:09:47;;;;;;;37.75;20.67;;;;;;;;;;5070415;28;20029;-72
2022/03/11 06:12:13;;;;;;;36.28;20.95;;;;;;;;;;5069697;28;20039;-72
2022/03/11 06:14:39;;;;;;;39.75;20.23;;;;;;;;;;5069955;28;20021;-73
2022/03/11 06:17:05;;;;;;;41.30;21.55;;;;;;;;;;5065099;28;20120;-72
2022/03/11 06:19:31;;;;;;;37.47;20.52;;;;;;;;;;5064658;28;20490;-72
2022/03/11 06:21:57;;;;;;;34.15;20.15;;;;;;;;;;5066579;28;20032;-71
2022/03/11 06:24:24;;;;;;;38.45;18.30;;;;;;;;;;5067725;28;20032;-72
2022/03/11 06:26:50;;;;;;;44.13;20.58;;;;;;;;;;5063794;28;20393;-72
2022/03/11 06:29:16;;;;;;;45.03;24.85;;;;;;;;;;5067481;28;20037;-72
2022/03/11 06:31:42;;;;;;;45.50;23.27;;;;;;;;;;5063483;28;20044;-72
2022/03/11 06:34:08;;;;;;;58.45;25.70;;;;;;;;;;5068128;28;20039;-73
2022/03/11 06:36:37;;;;;;;37.55;20.17;;;;;;;;;;5059407;28;20073;-71
2022/03/11 06:39:03;;;;;;;44.13;21.08;;;;;;;;;;5067185;28;20033;-70
2022/03/11 06:41:29;;;;;;;45.70;20.65;;;;;;;;;;5066752;28;20032;-70
2022/03/11 06:43:55;;;;;;;45.50;22.80;;;;;;;;;;5062802;28;20465;-70
2022/03/11 06:46:21;;;;;;;53.25;25.98;;;;;;;;;;5065695;28;20040;-70
2022/03/11 06:48:48;;;;;;;55.90;25.98;;;;;;;;;;5066364;28;20062;-70
2022/03/11 06:51:14;;;;;;;48.53;26.70;;;;;;;;;;5066315;28;20404;-70
2022/03/11 06:53:40;;;;;;;37.03;19.42;;;;;;;;;;5065292;28;20032;-70
2022/03/11 06:56:06;;;;;;;36.00;18.30;;;;;;;;;;5066399;28;20101;-70
2022/03/11 06:58:35;;;;;;;32.33;15.80;;;;;;;;;;5062181;28;20028;-70
2022/03/11 07:01:01;;;;;;;29.58;15.30;;;;;;;;;;5066984;28;20032;-70
2022/03/11 07:03:27;;;;;;;32.28;15.90;;;;;;;;;;5061141;28;20530;-70
2022/03/11 07:05:53;;;;;;;31.38;15.82;;;;;;;;;;5067330;28;20112;-70
2022/03/11 07:08:19;;;;;;;29.67;14.85;;;;;;;;;;5066008;28;20028;-70
2022/03/11 07:10:45;;;;;;;30.35;16.58;;;;;;;;;;5067715;28;20035;-70
2022/03/11 07:13:11;;;;;;;30.98;17.80;;;;;;;;;;5064269;28;20032;-70
2022/03/11 07:15:37;;;;;;;37.80;20.00;;;;;;;;;;5067099;28;20834;-71
2022/03/11 07:18:04;;;;;;;42.33;19.27;;;;;;;;;;5066036;28;20683;-70
2022/03/11 07:20:30;;;;;;;30.38;15.43;;;;;;;;;;5066847;28;20487;-70
2022/03/11 07:22:56;;;;;;;26.55;14.27;;;;;;;;;;5066808;28;20058;-70
2022/03/11 07:25:22;;;;;;;28.63;14.95;;;;;;;;;;5066170;28;20036;-70
2022/03/11 07:27:49;;;;;;;34.10;15.70;;;;;;;;;;5067091;28;20103;-70
2022/03/11 07:30:15;;;;;;;28.15;13.75;;;;;;;;;;5065454;28;20028;-70
2022/03/11 07:32:41;;;;;;;24.67;13.38;;;;;;;;;;5064605;28;20451;-70
2022/03/11 07:35:09;;;;;;;31.77;13.23;;;;;;;;;;5066136;28;20036;-70
2022/03/11 07:37:35;;;;;;;40.92;14.73;;;;;;;;;;5065896;28;20046;-71
2022/03/11 07:40:02;;;;;;;29.23;15.50;;;;;;;;;;5065842;28;20499;-70
2022/03/11 07:42:28;;;;;;;27.50;13.30;;;;;;;;;;5066069;28;20052;-70
2022/03/11 07:44:54;;;;;;;25.25;13.43;;;;;;;;;;5064871;28;20028;-70
2022/03/11 07:47:20;;;;;;;26.25;13.82;;;;;;;;;;5066996;28;20060;-70
2022/03/11 07:49:47;;;;;;;28.48;13.30;;;;;;;;;;5064274;28;20082;-70
2022/03/11 07:52:15;;;;;;;27.58;13.05;;;;;;;;;;5064861;28;20044;-70
2022/03/11 07:54:45;;;;;;;23.95;13.07;;;;;;;;;;5066704;28;20070;-70
2022/03/11 07:57:11;;;;;;;23.27;11.98;;;;;;;;;;5065259;28;20127;-70
2022/03/11 07:59:37;;;;;;;43.47;17.40;;;;;;;;;;5067043;28;20162;-70
2022/03/11 08:02:07;;;;;;;27.08;14.48;;;;;;;;;;5065005;28;20711;-70
2022/03/11 08:04:33;;;;;;;28.95;15.70;;;;;;;;;;5066060;28;20025;-70
2022/03/11 08:07:01;;;;;;;26.73;12.77;;;;;;;;;;5062761;28;20033;-70
2022/03/11 08:09:28;;;;;;;22.05;12.00;;;;;;;;;;5066120;28;20035;-70
2022/03/11 08:11:54;;;;;;;23.40;11.40;;;;;;;;;;5066068;28;20067;-70
2022/03/11 08:14:20;;;;;;;27.08;10.50;;;;;;;;;;5066871;28;20025;-70
2022/03/11 08:16:46;;;;;;;25.60;12.23;;;;;;;;;;5068943;28;20810;-70
2022/03/11 08:19:12;;;;;;;22.85;13.32;;;;;;;;;;5070373;28;20028;-70
2022/03/11 08:21:38;;;;;;;28.25;14.45;;;;;;;;;;5069015;28;20124;-70
2022/03/11 08:24:05;;;;;;;30.00;15.73;;;;;;;;;;5070340;28;20410;-70
2022/03/11 08:26:31;;;;;;;30.25;14.30;;;;;;;;;;5067616;28;20039;-70
2022/03/11 08:28:58;;;;;;;36.17;15.73;;;;;;;;;;5068336;28;20029;-70
2022/03/11 08:31:24;;;;;;;26.73;15.52;;;;;;;;;;5067785;28;20039;-71
2022/03/11 08:33:50;;;;;;;29.70;15.10;;;;;;;;;;5070627;28;20115;-70
2022/03/11 08:36:16;;;;;;;34.10;15.73;;;;;;;;;;5069814;28;20060;-70
2022/03/11 08:38:42;;;;;;;30.92;17.05;;;;;;;;;;5068004;28;20133;-70
2022/03/11 08:41:08;;;;;;;33.90;16.80;;;;;;;;;;5066248;28;20036;-70
2022/03/11 08:43:38;;;;;;;31.58;13.88;;;;;;;;;;5069686;28;20486;-70
2022/03/11 08:46:09;;;;;;;28.85;15.25;;;;;;;;;;5069685;28;20035;-70
2022/03/11 08:48:35;;;;;;;32.00;13.43;;;;;;;;;;5066280;28;20356;-70
2022/03/11 08:51:02;;;;;;;31.08;14.77;;;;;;;;;;5069445;28;20051;-71
2022/03/11 08:53:28;;;;;;;30.23;14.05;;;;;;;;;;5067817;28;20529;-70
2022/03/11 08:55:54;;;;;;;34.20;15.32;;;;;;;;;;5068498;28;20363;-70
2022/03/11 08:58:20;;;;;;;25.65;14.18;;;;;;;;;;5065682;28;20032;-70
2022/03/11 09:00:46;;;;;;;29.13;14.68;;;;;;;;;;5068650;28;20174;-70
2022/03/11 09:03:12;;;;;;;33.65;14.15;;;;;;;;;;5068683;28;20107;-70
2022/03/11 09:05:39;;;;;;;26.77;13.90;;;;;;;;;;5068039;28;20073;-71
2022/03/11 09:08:07;;;;;;;29.65;14.50;;;;;;;;;;5069382;28;20133;-70
2022/03/11 09:10:33;;;;;;;23.48;12.40;;;;;;;;;;5067412;28;20399;-71
2022/03/11 09:12:59;;;;;;;26.45;13.35;;;;;;;;;;5064649;28;20040;-71
2022/03/11 09:15:25;;;;;;;25.27;14.43;;;;;;;;;;5069534;28;20025;-70
2022/03/11 09:17:51;;;;;;;27.63;15.23;;;;;;;;;;5065751;28;20537;-71
2022/03/11 09:20:17;;;;;;;37.65;15.07;;;;;;;;;;5068839;28;20024;-70
2022/03/11 09:22:43;;;;;;;36.00;14.80;;;;;;;;;;5068188;28;20037;-70
2022/03/11 09:25:10;;;;;;;26.13;14.52;;;;;;;;;;5068404;28;20032;-71
2022/03/11 09:27:36;;;;;;;29.52;16.42;;;;;;;;;;5062789;28;20033;-71
2022/03/11 09:30:03;;;;;;;26.98;14.00;;;;;;;;;;5069149;28;20258;-70
2022/03/11 09:32:29;;;;;;;24.45;13.35;;;;;;;;;;5068181;28;20166;-70
2022/03/11 09:34:55;;;;;;;28.40;14.00;;;;;;;;;;5069140;28;20043;-70
2022/03/11 09:37:22;;;;;;;24.40;14.25;;;;;;;;;;5066692;28;20074;-70
2022/03/11 09:39:48;;;;;;;29.17;16.35;;;;;;;;;;5068871;28;20024;-70
2022/03/11 09:42:14;;;;;;;27.95;15.20;;;;;;;;;;5067605;28;20052;-71
2022/03/11 09:44:41;;;;;;;27.88;14.52;;;;;;;;;;5068670;28;20028;-70
2022/03/11 09:47:07;;;;;;;31.58;16.08;;;;;;;;;;5065902;28;20081;-70
2022/03/11 09:49:35;;;;;;;24.60;14.27;;;;;;;;;;5064686;28;20064;-70
2022/03/11 09:52:02;;;;;;;28.13;14.38;;;;;;;;;;5068041;28;20471;-70
2022/03/11 09:54:28;;;;;;;25.73;14.02;;;;;;;;;;5066993;28;20477;-70
2022/03/11 09:56:54;;;;;;;25.65;13.52;;;;;;;;;;5067855;28;20032;-70
2022/03/11 09:59:20;;;;;;;21.90;12.20;;;;;;;;;;5064002;28;20036;-70
2022/03/11 10:01:46;;;;;;;30.38;15.45;;;;;;;;;;5065528;28;20067;-70
2022/03/11 10:04:12;;;;;;;23.55;13.05;;;;;;;;;;5067884;28;20929;-71
2022/03/11 10:06:45;;;;;;;25.20;15.00;;;;;;;;;;5067912;28;20032;-70
2022/03/11 10:09:30;;;;;;;33.42;13.20;;;;;;;;;;5064579;28;20479;-70
2022/03/11 10:11:56;;;;;;;31.10;14.45;;;;;;;;;;5065256;28;20040;-70
2022/03/11 10:14:29;;;;;;;25.50;12.57;;;;;;;;;;5065510;28;20033;-70
2022/03/11 10:16:55;;;;;;;21.50;12.25;;;;;;;;;;5066886;28;20137;-70
2022/03/11 10:19:22;;;;;;;21.67;13.05;;;;;;;;;;5066166;28;20661;-70
2022/03/11 10:21:50;;;;;;;23.75;13.77;;;;;;;;;;5068099;28;20498;-71
2022/03/11 10:24:18;;;;;;;28.35;14.15;;;;;;;;;;5067536;28;20133;-70
2022/03/11 10:26:44;;;;;;;27.55;14.98;;;;;;;;;;5062211;28;20036;-70
2022/03/11 10:29:34;;;;;;;23.58;13.10;;;;;;;;;;5067224;28;20040;-70
2022/03/11 10:32:01;;;;;;;25.70;14.40;;;;;;;;;;5065646;28;20035;-70
2022/03/11 10:34:31;;;;;;;23.38;14.30;;;;;;;;;;5067234;28;20033;-70
2022/03/11 10:36:57;;;;;;;28.30;14.40;;;;;;;;;;5064655;28;20813;-70
2022/03/11 10:39:23;;;;;;;25.05;13.20;;;;;;;;;;5066411;28;20036;-70
2022/03/11 10:41:50;;;;;;;27.10;14.82;;;;;;;;;;5064497;28;20470;-70
2022/03/11 10:44:19;;;;;;;25.50;13.02;;;;;;;;;;5057262;28;20123;-70
2022/03/11 10:46:45;;;;;;;27.10;13.18;;;;;;;;;;5065932;28;20115;-70
2022/03/11 10:49:11;;;;;;;30.85;12.88;;;;;;;;;;5066512;28;20043;-70
2022/03/11 10:51:38;;;;;;;25.58;12.15;;;;;;;;;;5066814;28;20741;-70
2022/03/11 10:54:07;;;;;;;30.08;12.82;;;;;;;;;;5064760;28;20394;-70
2022/03/11 10:56:35;;;;;;;27.33;13.80;;;;;;;;;;5067233;28;20613;-71
2022/03/11 10:59:07;;;;;;;27.10;15.05;;;;;;;;;;5065176;28;20071;-71
2022/03/11 11:01:37;;;;;;;33.22;17.10;;;;;;;;;;5065787;28;20091;-70
2022/03/11 11:04:04;;;;;;;28.80;15.60;;;;;;;;;;5065014;28;20036;-70
2022/03/11 11:06:30;;;;;;;31.55;16.05;;;;;;;;;;5061129;28;20047;-70
2022/03/11 11:08:57;;;;;;;37.85;17.17;;;;;;;;;;5066398;28;20036;-70
2022/03/11 11:11:23;;;;;;;26.30;14.75;;;;;;;;;;5066541;28;20044;-70
2022/03/11 11:13:49;;;;;;;25.85;15.95;;;;;;;;;;5066115;28;20114;-71
2022/03/11 11:16:17;;;;;;;27.90;15.30;;;;;;;;;;5066102;28;20033;-70
2022/03/11 11:18:46;;;;;;;32.30;16.15;;;;;;;;;;5065591;28;20036;-70
2022/03/11 11:21:13;;;;;;;27.77;15.23;;;;;;;;;;5066684;28;20035;-71
2022/03/11 11:23:39;;;;;;;30.33;14.70;;;;;;;;;;5065886;28;20081;-70
2022/03/11 11:26:09;;;;;;;30.40;14.77;;;;;;;;;;5066009;28;20074;-70
2022/03/11 11:28:37;;;;;;;29.55;14.80;;;;;;;;;;5065191;28;20103;-71
2022/03/11 11:31:05;;;;;;;29.67;15.85;;;;;;;;;;5065688;28;20039;-71
2022/03/11 11:33:31;;;;;;;27.17;14.88;;;;;;;;;;5066333;28;20036;-70
2022/03/11 11:36:01;;;;;;;29.48;15.02;;;;;;;;;;5065700;28;20025;-71
2022/03/11 11:38:27;;;;;;;32.47;15.55;;;;;;;;;;5065699;28;20381;-70
2022/03/11 11:40:54;;;;;;;29.83;15.30;;;;;;;;;;5058183;28;20040;-70
2022/03/11 11:43:28;;;;;;;30.23;14.95;;;;;;;;;;5065560;28;20822;-70
2022/03/11 11:45:55;;;;;;;28.33;14.65;;;;;;;;;;5063873;28;20040;-71
2022/03/11 11:48:33;;;;;;;25.08;15.23;;;;;;;;;;5063831;28;20044;-70
2022/03/11 11:51:00;;;;;;;21.77;14.20;;;;;;;;;;5064365;28;20023;-71
2022/03/11 11:53:37;;;;;;;27.38;16.13;;;;;;;;;;5064149;28;20041;-71
2022/03/11 11:56:22;;;;;;;23.65;15.32;;;;;;;;;;5060547;28;20075;-71
2022/03/11 11:58:51;;;;;;;32.47;15.82;;;;;;;;;;5057807;28;20071;-71
2022/03/11 12:01:40;;;;;;;29.25;16.63;;;;;;;;;;5063747;28;20611;-70
2022/03/11 12:04:25;;;;;;;27.60;15.88;;;;;;;;;;5057209;28;20049;-70
2022/03/11 12:06:55;;;;;;;29.30;15.32;;;;;;;;;;5063285;28;20038;-71
2022/03/11 12:12:05;;;;;;;26.08;16.50;;;;;;;;;;5062887;28;20033;-71
2022/03/11 12:14:32;;;;;;;24.13;15.05;;;;;;;;;;5065753;28;20443;-70
2022/03/11 12:17:08;;;;;;;25.33;15.27;;;;;;;;;;5065291;28;20032;-71
2022/03/11 12:19:37;;;;;;;24.73;13.77;;;;;;;;;;5065580;28;20062;-71
2022/03/11 12:22:21;;;;;;;26.35;13.70;;;;;;;;;;5066544;28;20819;-71
2022/03/11 12:24:57;;;;;;;24.85;13.52;;;;;;;;;;5066839;28;20246;-71
2022/03/11 12:27:42;;;;;;;30.65;13.95;;;;;;;;;;5063975;28;20025;-71
2022/03/11 12:30:09;;;;;;;24.05;14.02;;;;;;;;;;5062478;28;20095;-70
2022/03/11 12:32:38;;;;;;;24.17;14.02;;;;;;;;;;5064509;28;20027;-70
2022/03/11 12:35:04;;;;;;;23.95;13.68;;;;;;;;;;5061955;28;20032;-71
2022/03/11 12:37:30;;;;;;;26.35;14.25;;;;;;;;;;5059754;28;20024;-71
2022/03/11 12:39:57;;;;;;;27.90;14.65;;;;;;;;;;5065827;28;20082;-71
2022/03/11 12:42:42;;;;;;;28.50;15.95;;;;;;;;;;5063935;28;20047;-70
2022/03/11 12:45:11;;;;;;;24.85;15.98;;;;;;;;;;5062123;28;20044;-71
2022/03/11 12:47:37;;;;;;;34.25;16.45;;;;;;;;;;5065479;28;20036;-70
2022/03/11 12:50:07;;;;;;;24.83;16.02;;;;;;;;;;5066341;28;20033;-70
2022/03/11 12:52:40;;;;;;;27.60;15.15;;;;;;;;;;5065042;28;20122;-71
2022/03/11 12:55:26;;;;;;;27.88;16.65;;;;;;;;;;5065985;28;20037;-71
2022/03/11 12:57:54;;;;;;;32.67;17.73;;;;;;;;;;5063182;28;20029;-71
2022/03/11 13:00:21;;;;;;;27.33;16.67;;;;;;;;;;5065643;28;20033;-70
2022/03/11 13:02:50;;;;;;;28.75;18.60;;;;;;;;;;5065819;28;20033;-70
2022/03/11 13:05:20;;;;;;;30.20;19.45;;;;;;;;;;5067798;28;20047;-70
2022/03/11 13:07:46;;;;;;;31.63;18.33;;;;;;;;;;5066596;28;20037;-70
2022/03/11 13:10:17;;;;;;;33.58;19.85;;;;;;;;;;5069100;28;20533;-70
2022/03/11 13:12:43;;;;;;;31.95;17.65;;;;;;;;;;5066224;28;20677;-70
2022/03/11 13:15:13;;;;;;;26.42;17.88;;;;;;;;;;5066816;28;20115;-70
2022/03/11 13:17:46;;;;;;;28.48;16.88;;;;;;;;;;5067489;28;20059;-70
2022/03/11 13:20:31;;;;;;;28.63;18.42;;;;;;;;;;5068620;28;20032;-70
2022/03/11 13:22:58;;;;;;;33.13;17.40;;;;;;;;;;5060800;28;20078;-70
2022/03/11 13:25:28;;;;;;;29.35;16.80;;;;;;;;;;5067827;28;20033;-70
2022/03/11 13:27:55;;;;;;;29.65;17.55;;;;;;;;;;5068112;28;20119;-70
2022/03/11 13:30:30;;;;;;;29.05;17.70;;;;;;;;;;5068142;28;20036;-70
2022/03/11 13:32:57;;;;;;;31.92;17.48;;;;;;;;;;5068038;28;20084;-71
2022/03/11 13:35:32;;;;;;;32.50;17.05;;;;;;;;;;5067839;28;20549;-70
2022/03/11 13:37:58;;;;;;;30.60;18.17;;;;;;;;;;5068072;28;20470;-71
2022/03/11 13:40:24;;;;;;;28.20;15.80;;;;;;;;;;5066477;28;20153;-71
2022/03/11 13:42:54;;;;;;;34.28;16.83;;;;;;;;;;5068662;28;20411;-70
2022/03/11 13:45:26;;;;;;;26.73;16.75;;;;;;;;;;5066016;28;20560;-71
2022/03/11 13:48:09;;;;;;;33.38;17.20;;;;;;;;;;5068868;28;20021;-70
2022/03/11 13:50:36;;;;;;;30.25;18.85;;;;;;;;;;5066164;28;20028;-71
2022/03/11 13:53:03;;;;;;;30.40;18.40;;;;;;;;;;5068359;28;20032;-71
2022/03/11 13:55:39;;;;;;;24.75;16.65;;;;;;;;;;5067867;28;20040;-71
2022/03/11 13:58:15;;;;;;;26.85;17.42;;;;;;;;;;5069061;28;20025;-71
2022/03/11 14:00:41;;;;;;;28.10;16.48;;;;;;;;;;5060261;28;20047;-70
2022/03/11 14:03:14;;;;;;;26.13;16.88;;;;;;;;;;5067706;28;20033;-71
2022/03/11 14:05:41;;;;;;;28.13;17.10;;;;;;;;;;5066401;28;20106;-71
2022/03/11 14:08:07;;;;;;;28.80;17.73;;;;;;;;;;5067427;28;20036;-71
2022/03/11 14:10:37;;;;;;;27.55;17.30;;;;;;;;;;5066613;28;20032;-71
2022/03/11 14:13:05;;;;;;;29.98;17.00;;;;;;;;;;5065110;28;20485;-71
2022/03/11 14:15:36;;;;;;;25.30;15.60;;;;;;;;;;5056746;28;20032;-71
2022/03/11 14:18:02;;;;;;;22.50;15.55;;;;;;;;;;5063912;28;20028;-71
2022/03/11 14:20:31;;;;;;;25.58;16.05;;;;;;;;;;5066883;28;20036;-71